Time;durP1;ratioP1;P1;durP2;ratioP2;P2;SDS_P1;SDS_P2;PMS_P1;PMS_P2;Temp;Humidity;BMP_temperature;BMP_pressure;BME280_temperature;BME280_humidity;BME280_pressure;Samples;Min_cycle;Max_cycle;Signal;HPM_P1;HPM_P2
2022/04/03 00:01:04;;;;;;;7.00;2.72;;;;;;;;;;4978742;28;20046;-78
2022/04/03 00:03:29;;;;;;;9.10;3.00;;;;;;;;;;4976135;28;20081;-77
2022/04/03 00:05:54;;;;;;;8.05;2.83;;;;;;;;;;4976322;28;20257;-77
2022/04/03 00:08:19;;;;;;;8.32;2.83;;;;;;;;;;4978312;28;20023;-77
2022/04/03 00:10:45;;;;;;;7.03;2.58;;;;;;;;;;4977302;28;20034;-77
2022/04/03 00:13:11;;;;;;;6.82;2.80;;;;;;;;;;4978588;28;20023;-77
2022/04/03 00:15:41;;;;;;;6.20;2.40;;;;;;;;;;4980264;28;20015;-78
2022/04/03 00:18:06;;;;;;;6.45;2.67;;;;;;;;;;4977769;28;20015;-76
2022/04/03 00:20:31;;;;;;;6.05;2.42;;;;;;;;;;4977895;28;20026;-77
2022/04/03 00:22:57;;;;;;;6.78;2.65;;;;;;;;;;4978589;28;20053;-76
2022/04/03 00:25:22;;;;;;;6.55;2.38;;;;;;;;;;4980036;28;20039;-77
2022/04/03 00:27:48;;;;;;;4.30;2.10;;;;;;;;;;4979490;28;20084;-78
2022/04/03 00:30:13;;;;;;;6.95;2.83;;;;;;;;;;4978492;28;20022;-77
2022/04/03 00:32:39;;;;;;;6.40;2.10;;;;;;;;;;4979980;28;20046;-78
2022/04/03 00:35:04;;;;;;;6.72;2.47;;;;;;;;;;4979556;28;20023;-77
2022/04/03 00:37:30;;;;;;;6.90;1.90;;;;;;;;;;4980661;28;20081;-78
2022/04/03 00:39:55;;;;;;;6.28;2.05;;;;;;;;;;4980520;28;20083;-77
2022/04/03 00:42:20;;;;;;;4.22;2.28;;;;;;;;;;4980108;28;20011;-76
2022/04/03 00:44:46;;;;;;;6.50;2.78;;;;;;;;;;4981097;28;20114;-77
2022/04/03 00:47:12;;;;;;;5.78;1.92;;;;;;;;;;4980442;28;20212;-75
2022/04/03 00:49:38;;;;;;;4.05;1.60;;;;;;;;;;4979545;28;20026;-79
2022/04/03 00:52:03;;;;;;;4.70;1.85;;;;;;;;;;4978641;28;20540;-78
2022/04/03 00:54:29;;;;;;;4.15;1.77;;;;;;;;;;4976943;28;20038;-77
2022/04/03 00:56:54;;;;;;;4.68;2.45;;;;;;;;;;4977279;28;20039;-78
2022/04/03 00:59:19;;;;;;;5.38;1.80;;;;;;;;;;4977003;28;20015;-78
2022/04/03 01:01:45;;;;;;;5.93;2.45;;;;;;;;;;4975692;28;20400;-76
2022/04/03 01:04:11;;;;;;;4.20;1.73;;;;;;;;;;4975554;28;20029;-77
2022/04/03 01:06:36;;;;;;;7.60;2.22;;;;;;;;;;4977390;28;20029;-78
2022/04/03 01:09:03;;;;;;;6.18;2.20;;;;;;;;;;4977219;28;20066;-77
2022/04/03 01:11:28;;;;;;;3.90;2.05;;;;;;;;;;4976441;28;20037;-78
2022/04/03 01:13:57;;;;;;;6.90;2.33;;;;;;;;;;4975341;28;20113;-77
2022/04/03 01:16:22;;;;;;;;;;;;;;;;;;4976183;28;20057;-78
2022/04/03 01:18:47;;;;;;;9.90;2.97;;;;;;;;;;4977170;28;19935;-78
2022/04/03 01:21:13;;;;;;;6.22;2.05;;;;;;;;;;4976600;28;20019;-76
2022/04/03 01:23:38;;;;;;;6.25;2.03;;;;;;;;;;4974285;28;20031;-78
2022/04/03 01:26:05;;;;;;;6.10;2.80;;;;;;;;;;4976979;28;20042;-78
2022/04/03 01:28:30;;;;;;;4.22;1.83;;;;;;;;;;4977623;28;20106;-78
2022/04/03 01:30:55;;;;;;;3.30;1.70;;;;;;;;;;4976649;28;20050;-77
2022/04/03 01:33:21;;;;;;;4.70;2.60;;;;;;;;;;4978381;28;20082;-77
2022/04/03 01:35:46;;;;;;;6.40;1.87;;;;;;;;;;4975738;28;20466;-78
2022/04/03 01:38:11;;;;;;;6.30;1.80;;;;;;;;;;4976042;28;20027;-77
2022/04/03 01:40:37;;;;;;;5.00;1.80;;;;;;;;;;4977955;28;20434;-77
2022/04/03 01:43:06;;;;;;;4.85;2.00;;;;;;;;;;4977658;28;20022;-78
2022/04/03 01:45:31;;;;;;;5.15;1.67;;;;;;;;;;4977269;28;20150;-77
2022/04/03 01:47:57;;;;;;;5.35;1.55;;;;;;;;;;4977856;28;20055;-79
2022/04/03 01:50:22;;;;;;;2.95;1.48;;;;;;;;;;4976901;28;20095;-78
2022/04/03 01:52:47;;;;;;;3.00;1.40;;;;;;;;;;4974566;28;20069;-77
2022/04/03 01:55:13;;;;;;;3.05;1.70;;;;;;;;;;4974016;28;20019;-79
2022/04/03 01:57:38;;;;;;;3.75;1.65;;;;;;;;;;4975642;28;20018;-78
2022/04/03 02:00:06;;;;;;;4.53;1.52;;;;;;;;;;4975354;28;20026;-78
2022/04/03 02:02:31;;;;;;;4.30;1.52;;;;;;;;;;4977646;28;20022;-78
2022/04/03 02:04:56;;;;;;;4.85;1.55;;;;;;;;;;4975169;28;20018;-77
2022/04/03 02:07:22;;;;;;;5.68;1.85;;;;;;;;;;4975467;28;20038;-79
2022/04/03 02:09:47;;;;;;;5.10;1.70;;;;;;;;;;4974063;28;20038;-78
2022/04/03 02:12:12;;;;;;;7.85;2.10;;;;;;;;;;4976906;28;20431;-79
2022/04/03 02:14:38;;;;;;;4.32;1.80;;;;;;;;;;4975436;28;20549;-77
2022/04/03 02:17:03;;;;;;;8.03;2.20;;;;;;;;;;4974496;28;20044;-77
2022/04/03 02:19:29;;;;;;;4.65;1.90;;;;;;;;;;4975311;28;20481;-77
2022/04/03 02:21:54;;;;;;;5.03;1.60;;;;;;;;;;4973515;28;20018;-77
2022/04/03 02:24:19;;;;;;;8.30;2.17;;;;;;;;;;4974469;28;20678;-78
2022/04/03 02:26:44;;;;;;;5.70;1.90;;;;;;;;;;4973581;28;20110;-78
2022/04/03 02:29:10;;;;;;;6.90;2.17;;;;;;;;;;4974980;28;20022;-78
2022/04/03 02:31:35;;;;;;;4.95;2.03;;;;;;;;;;4976267;28;20394;-78
2022/04/03 02:34:01;;;;;;;4.80;1.77;;;;;;;;;;4974412;28;20422;-77
2022/04/03 02:36:26;;;;;;;5.27;1.70;;;;;;;;;;4976071;28;20039;-76
2022/04/03 02:38:51;;;;;;;6.05;1.85;;;;;;;;;;4976402;28;20484;-77
2022/04/03 02:41:17;;;;;;;5.65;2.25;;;;;;;;;;4975330;28;20482;-76
2022/04/03 02:43:51;;;;;;;5.55;2.22;;;;;;;;;;4975589;28;20034;-79
2022/04/03 02:46:17;;;;;;;5.33;2.13;;;;;;;;;;4974361;28;20057;-76
2022/04/03 02:48:42;;;;;;;5.63;2.30;;;;;;;;;;4974844;28;20050;-78
2022/04/03 02:51:07;;;;;;;6.27;2.13;;;;;;;;;;4974739;28;20082;-77
2022/04/03 02:53:32;;;;;;;5.27;2.03;;;;;;;;;;4973286;28;20496;-77
2022/04/03 02:55:58;;;;;;;4.87;1.87;;;;;;;;;;4973694;28;20018;-76
2022/04/03 02:58:23;;;;;;;5.47;2.00;;;;;;;;;;4973507;28;20022;-78
2022/04/03 03:00:49;;;;;;;8.03;2.10;;;;;;;;;;4973059;28;20026;-77
2022/04/03 03:03:14;;;;;;;6.40;2.00;;;;;;;;;;4974264;28;20023;-77
2022/04/03 03:05:49;;;;;;;6.50;2.43;;;;;;;;;;4974586;28;20054;-77
2022/04/03 03:08:14;;;;;;;3.90;1.83;;;;;;;;;;4972908;28;20113;-77
2022/04/03 03:10:40;;;;;;;5.03;2.20;;;;;;;;;;4973673;28;20457;-77
2022/04/03 03:13:05;;;;;;;6.33;1.70;;;;;;;;;;4972258;28;20049;-77
2022/04/03 03:15:31;;;;;;;4.90;2.30;;;;;;;;;;4974140;28;20020;-77
2022/04/03 03:17:56;;;;;;;3.90;1.77;;;;;;;;;;4973765;28;20046;-76
2022/04/03 03:20:21;;;;;;;4.23;1.77;;;;;;;;;;4974046;28;20018;-77
2022/04/03 03:22:47;;;;;;;3.73;1.73;;;;;;;;;;4974987;28;20026;-77
2022/04/03 03:25:12;;;;;;;4.40;1.90;;;;;;;;;;4973715;28;20454;-77
2022/04/03 03:27:39;;;;;;;5.53;2.00;;;;;;;;;;4972033;28;20031;-76
2022/04/03 03:30:04;;;;;;;5.33;1.80;;;;;;;;;;4973782;28;20478;-78
2022/04/03 03:32:42;;;;;;;4.97;1.70;;;;;;;;;;4973615;28;20030;-76
2022/04/03 03:35:07;;;;;;;4.07;1.57;;;;;;;;;;4973041;28;20034;-77
2022/04/03 03:37:33;;;;;;;5.63;2.00;;;;;;;;;;4974784;28;20384;-77
2022/04/03 03:39:58;;;;;;;4.67;2.10;;;;;;;;;;4973784;28;20069;-77
2022/04/03 03:42:24;;;;;;;6.00;1.67;;;;;;;;;;4973622;28;20027;-77
2022/04/03 03:44:49;;;;;;;6.40;1.80;;;;;;;;;;4973277;28;20394;-76
2022/04/03 03:47:14;;;;;;;5.67;1.90;;;;;;;;;;4976739;28;20050;-78
2022/04/03 03:49:40;;;;;;;5.53;2.03;;;;;;;;;;4978487;28;20042;-78
2022/04/03 03:52:05;;;;;;;6.30;2.00;;;;;;;;;;4977548;28;20077;-76
2022/04/03 03:54:31;;;;;;;5.80;2.10;;;;;;;;;;4977508;28;20069;-77
2022/04/03 03:56:59;;;;;;;7.67;2.27;;;;;;;;;;4977746;28;20023;-77
2022/04/03 03:59:30;;;;;;;4.82;2.13;;;;;;;;;;4976268;28;20019;-77
2022/04/03 04:01:56;;;;;;;5.23;1.83;;;;;;;;;;4976979;28;20029;-77
2022/04/03 04:04:21;;;;;;;4.27;1.70;;;;;;;;;;4977782;28;20046;-77
2022/04/03 04:06:48;;;;;;;3.97;1.77;;;;;;;;;;4977364;28;20023;-77
2022/04/03 04:09:13;;;;;;;4.70;2.00;;;;;;;;;;4977165;28;20019;-77
2022/04/03 04:11:38;;;;;;;4.00;1.97;;;;;;;;;;4977649;28;20042;-77
2022/04/03 04:14:03;;;;;;;6.80;1.87;;;;;;;;;;4976950;28;20023;-77
2022/04/03 04:16:29;;;;;;;6.13;2.10;;;;;;;;;;4977348;28;20035;-76
2022/04/03 04:18:54;;;;;;;5.37;2.77;;;;;;;;;;4979255;28;20050;-78
2022/04/03 04:21:19;;;;;;;4.50;2.10;;;;;;;;;;4976412;28;20026;-78
2022/04/03 04:23:45;;;;;;;6.33;1.90;;;;;;;;;;4977111;28;20046;-77
2022/04/03 04:26:10;;;;;;;4.90;1.80;;;;;;;;;;4977393;28;20473;-77
2022/04/03 04:28:35;;;;;;;6.80;2.80;;;;;;;;;;4977296;28;20105;-77
2022/04/03 04:31:00;;;;;;;6.93;1.90;;;;;;;;;;4976229;28;20027;-77
2022/04/03 04:33:26;;;;;;;6.23;2.40;;;;;;;;;;4977022;28;20026;-77
2022/04/03 04:35:51;;;;;;;6.23;2.13;;;;;;;;;;4977173;28;20077;-77
2022/04/03 04:38:17;;;;;;;6.63;2.10;;;;;;;;;;4977680;28;20458;-78
2022/04/03 04:40:43;;;;;;;4.80;2.30;;;;;;;;;;4977134;28;20085;-78
2022/04/03 04:43:15;;;;;;;5.93;1.77;;;;;;;;;;4977627;28;20058;-77
2022/04/03 04:45:40;;;;;;;6.73;2.00;;;;;;;;;;4977669;28;20023;-79
2022/04/03 04:48:05;;;;;;;4.87;2.20;;;;;;;;;;4977836;28;20018;-78
2022/04/03 04:50:31;;;;;;;5.67;2.27;;;;;;;;;;4979415;28;20023;-78
2022/04/03 04:52:57;;;;;;;6.17;2.33;;;;;;;;;;4977979;28;20445;-77
2022/04/03 04:55:24;;;;;;;9.07;2.80;;;;;;;;;;4977328;28;20019;-78
2022/04/03 04:57:50;;;;;;;8.43;2.30;;;;;;;;;;4975778;28;20043;-77
2022/04/03 05:00:16;;;;;;;6.37;2.93;;;;;;;;;;4977107;28;20062;-77
2022/04/03 05:02:45;;;;;;;8.17;3.17;;;;;;;;;;4977249;28;20050;-78
2022/04/03 05:05:13;;;;;;;6.10;2.90;;;;;;;;;;4978758;28;20019;-78
2022/04/03 05:07:38;;;;;;;8.93;2.83;;;;;;;;;;4976199;28;20018;-77
2022/04/03 05:10:04;;;;;;;5.63;2.80;;;;;;;;;;4976741;28;20034;-78
2022/04/03 05:12:29;;;;;;;7.60;2.50;;;;;;;;;;4979405;28;20025;-77
2022/04/03 05:14:54;;;;;;;6.33;2.20;;;;;;;;;;4979588;28;20445;-77
2022/04/03 05:17:19;;;;;;;5.67;2.03;;;;;;;;;;4980322;28;20023;-76
2022/04/03 05:19:45;;;;;;;5.57;2.00;;;;;;;;;;4980431;28;20459;-78
2022/04/03 05:22:10;;;;;;;6.57;2.50;;;;;;;;;;4979636;28;20022;-76
2022/04/03 05:24:35;;;;;;;6.20;2.43;;;;;;;;;;4979906;28;20019;-77
2022/04/03 05:27:00;;;;;;;10.70;2.56;;;;;;;;;;4981751;28;20023;-77
2022/04/03 05:29:25;;;;;;;7.10;2.27;;;;;;;;;;4982154;28;20033;-78
2022/04/03 05:31:50;;;;;;;4.33;2.10;;;;;;;;;;4982959;28;20602;-77
2022/04/03 05:34:16;;;;;;;5.63;1.90;;;;;;;;;;4983612;28;20046;-77
2022/04/03 05:36:41;;;;;;;5.17;2.03;;;;;;;;;;4984382;28;20060;-78
2022/04/03 05:39:06;;;;;;;4.03;1.80;;;;;;;;;;4983050;28;20042;-77
2022/04/03 05:41:32;;;;;;;5.33;2.03;;;;;;;;;;4984642;28;20026;-77
2022/04/03 05:43:58;;;;;;;5.47;2.00;;;;;;;;;;4984809;28;20023;-78
2022/04/03 05:46:23;;;;;;;4.00;1.67;;;;;;;;;;4986327;28;20026;-78
2022/04/03 05:48:48;;;;;;;6.87;2.00;;;;;;;;;;4984726;28;20043;-77
2022/04/03 05:51:13;;;;;;;4.63;1.93;;;;;;;;;;4985152;28;20030;-78
2022/04/03 05:53:40;;;;;;;6.30;2.30;;;;;;;;;;4984550;28;20050;-78
2022/04/03 05:56:05;;;;;;;5.40;2.07;;;;;;;;;;4984547;28;20030;-78
2022/04/03 05:58:30;;;;;;;5.90;1.93;;;;;;;;;;4984102;28;20019;-76
2022/04/03 06:00:55;;;;;;;3.50;1.70;;;;;;;;;;4980956;28;20010;-78
2022/04/03 06:03:20;;;;;;;6.33;2.00;;;;;;;;;;4980471;28;20027;-77
2022/04/03 06:05:47;;;;;;;5.20;2.10;;;;;;;;;;4981163;28;20019;-77
2022/04/03 06:08:13;;;;;;;4.27;1.80;;;;;;;;;;4981547;28;20018;-78
2022/04/03 06:10:38;;;;;;;4.07;1.60;;;;;;;;;;4979669;28;20089;-78
2022/04/03 06:13:04;;;;;;;3.67;1.77;;;;;;;;;;4980217;28;20474;-77
2022/04/03 06:15:34;;;;;;;4.97;2.03;;;;;;;;;;4979911;28;20029;-77
2022/04/03 06:17:59;;;;;;;5.43;2.10;;;;;;;;;;4979296;28;20031;-77
2022/04/03 06:20:25;;;;;;;3.43;1.73;;;;;;;;;;4977656;28;20077;-78
2022/04/03 06:22:51;;;;;;;5.77;1.87;;;;;;;;;;4975845;28;20027;-78
2022/04/03 06:25:16;;;;;;;4.40;1.73;;;;;;;;;;4977589;28;20030;-77
2022/04/03 06:27:42;;;;;;;10.03;2.20;;;;;;;;;;4977079;28;20492;-76
2022/04/03 06:30:08;;;;;;;10.27;2.10;;;;;;;;;;4974414;28;20083;-77
2022/04/03 06:32:33;;;;;;;5.70;2.20;;;;;;;;;;4974501;28;20474;-78
2022/04/03 06:34:59;;;;;;;5.47;1.87;;;;;;;;;;4973962;28;20027;-78
2022/04/03 06:37:24;;;;;;;6.13;2.33;;;;;;;;;;4976776;28;20030;-77
2022/04/03 06:39:52;;;;;;;2.97;1.50;;;;;;;;;;4974729;28;20065;-78
2022/04/03 06:42:18;;;;;;;3.80;1.80;;;;;;;;;;4974649;28;20042;-77
2022/04/03 06:44:43;;;;;;;3.90;1.80;;;;;;;;;;4973572;28;20494;-78
2022/04/03 06:47:09;;;;;;;7.30;2.07;;;;;;;;;;4974858;28;20023;-78
2022/04/03 06:49:35;;;;;;;5.30;2.13;;;;;;;;;;4973901;28;20042;-77
2022/04/03 06:52:01;;;;;;;3.43;1.50;;;;;;;;;;4976990;28;20025;-78
2022/04/03 06:54:26;;;;;;;5.43;2.07;;;;;;;;;;4974702;28;20023;-78
2022/04/03 06:56:52;;;;;;;4.40;1.57;;;;;;;;;;4974332;28;20041;-78
2022/04/03 06:59:17;;;;;;;4.63;1.90;;;;;;;;;;4974972;28;20026;-78
2022/04/03 07:01:42;;;;;;;4.17;1.70;;;;;;;;;;4974720;28;20015;-77
2022/04/03 07:04:07;;;;;;;4.60;2.10;;;;;;;;;;4974865;28;20019;-77
2022/04/03 07:06:33;;;;;;;6.25;1.80;;;;;;;;;;4975569;28;20027;-78
2022/04/03 07:08:58;;;;;;;3.77;1.67;;;;;;;;;;4976266;28;20382;-78
2022/04/03 07:11:23;;;;;;;9.27;2.58;;;;;;;;;;4975098;28;20106;-78
2022/04/03 07:13:49;;;;;;;3.27;1.50;;;;;;;;;;4974386;28;20031;-77
2022/04/03 07:16:14;;;;;;;3.85;1.73;;;;;;;;;;4974336;28;20022;-78
2022/04/03 07:18:39;;;;;;;2.58;1.38;;;;;;;;;;4974289;28;20470;-78
2022/04/03 07:21:04;;;;;;;4.57;1.52;;;;;;;;;;4975282;28;20019;-78
2022/04/03 07:23:29;;;;;;;3.85;1.75;;;;;;;;;;4974999;28;20029;-78
2022/04/03 07:25:55;;;;;;;3.35;1.42;;;;;;;;;;4973988;28;20093;-77
2022/04/03 07:28:20;;;;;;;10.48;1.80;;;;;;;;;;4974184;28;20023;-76
2022/04/03 07:30:45;;;;;;;3.45;1.33;;;;;;;;;;4974622;28;20034;-78
2022/04/03 07:33:10;;;;;;;5.82;2.17;;;;;;;;;;4974401;28;20029;-77
2022/04/03 07:35:37;;;;;;;3.97;1.73;;;;;;;;;;4974509;28;20039;-79
2022/04/03 07:38:02;;;;;;;5.45;1.92;;;;;;;;;;4974440;28;20068;-78
2022/04/03 07:40:27;;;;;;;2.95;1.55;;;;;;;;;;4974300;28;20122;-78
2022/04/03 07:42:53;;;;;;;4.50;1.63;;;;;;;;;;4974348;28;20113;-78
2022/04/03 07:45:18;;;;;;;5.22;1.50;;;;;;;;;;4974342;28;20158;-77
2022/04/03 07:47:52;;;;;;;6.00;1.40;;;;;;;;;;4974964;28;20019;-79
2022/04/03 07:50:21;;;;;;;5.97;2.20;;;;;;;;;;4974573;28;20035;-79
2022/04/03 07:52:47;;;;;;;5.60;2.03;;;;;;;;;;4974445;28;20019;-76
2022/04/03 07:55:13;;;;;;;5.00;1.75;;;;;;;;;;4975582;28;20022;-78
2022/04/03 07:57:39;;;;;;;5.13;1.88;;;;;;;;;;4974032;28;20545;-78
2022/04/03 08:00:06;;;;;;;5.00;1.50;;;;;;;;;;4974008;28;20041;-78
2022/04/03 08:02:32;;;;;;;2.55;1.35;;;;;;;;;;4973459;28;20093;-77
2022/04/03 08:04:57;;;;;;;7.72;2.88;;;;;;;;;;4973705;28;20057;-78
2022/04/03 08:07:33;;;;;;;4.90;2.03;;;;;;;;;;4974005;28;20023;-78
2022/04/03 08:09:58;;;;;;;4.57;1.83;;;;;;;;;;4976061;28;20023;-78
2022/04/03 08:12:23;;;;;;;3.38;1.70;;;;;;;;;;4976279;28;20106;-78
2022/04/03 08:14:49;;;;;;;3.03;1.67;;;;;;;;;;4974073;28;20071;-78
2022/04/03 08:17:14;;;;;;;4.65;1.83;;;;;;;;;;4974596;28;20026;-77
2022/04/03 08:19:39;;;;;;;3.58;1.80;;;;;;;;;;4974655;28;20170;-77
2022/04/03 08:22:04;;;;;;;3.80;1.60;;;;;;;;;;4973392;28;20100;-78
2022/04/03 08:24:30;;;;;;;5.45;1.98;;;;;;;;;;4974030;28;20062;-78
2022/04/03 08:26:55;;;;;;;4.90;1.60;;;;;;;;;;4986212;23;20095;-70
2022/04/03 08:29:20;;;;;;;4.83;1.70;;;;;;;;;;4973672;28;20033;-70
2022/04/03 08:31:45;;;;;;;4.18;1.67;;;;;;;;;;4975150;28;20019;-70
2022/04/03 08:34:11;;;;;;;3.90;1.60;;;;;;;;;;4978025;28;20026;-69
2022/04/03 08:36:36;;;;;;;3.47;1.40;;;;;;;;;;4977088;28;20475;-71
2022/04/03 08:39:01;;;;;;;5.85;2.70;;;;;;;;;;4977711;28;20014;-71
2022/04/03 08:41:27;;;;;;;4.38;1.83;;;;;;;;;;4959369;28;20027;-69
2022/04/03 08:43:52;;;;;;;4.77;1.63;;;;;;;;;;4975387;28;20098;-69
2022/04/03 08:46:18;;;;;;;3.58;1.52;;;;;;;;;;4976698;28;20463;-70
2022/04/03 08:48:46;;;;;;;5.50;1.67;;;;;;;;;;4977121;28;20077;-70
2022/04/03 08:51:12;;;;;;;6.32;1.80;;;;;;;;;;4975989;28;20155;-70
2022/04/03 08:53:38;;;;;;;4.18;1.92;;;;;;;;;;4976508;28;20044;-70
2022/04/03 08:56:03;;;;;;;5.78;2.33;;;;;;;;;;4976677;28;20069;-70
2022/04/03 08:58:29;;;;;;;3.85;1.65;;;;;;;;;;4974885;28;20019;-70
2022/04/03 09:00:55;;;;;;;3.47;1.45;;;;;;;;;;4974741;28;20185;-70
2022/04/03 09:03:20;;;;;;;3.83;1.13;;;;;;;;;;4975139;28;20618;-71
2022/04/03 09:05:45;;;;;;;5.95;1.90;;;;;;;;;;4976801;28;20101;-70
2022/04/03 09:08:11;;;;;;;3.40;1.10;;;;;;;;;;4976322;28;20394;-71
2022/04/03 09:10:37;;;;;;;5.50;1.55;;;;;;;;;;4976335;28;20027;-71
2022/04/03 09:13:02;;;;;;;3.25;1.40;;;;;;;;;;4974564;28;20023;-71
2022/04/03 09:15:29;;;;;;;3.70;1.42;;;;;;;;;;4976788;28;20474;-70
2022/04/03 09:17:56;;;;;;;2.35;1.10;;;;;;;;;;4975230;28;20019;-70
2022/04/03 09:20:22;;;;;;;3.40;1.20;;;;;;;;;;4975093;28;20023;-71
2022/04/03 09:22:54;;;;;;;4.50;1.40;;;;;;;;;;4974628;28;20398;-71
2022/04/03 09:25:24;;;;;;;2.90;1.40;;;;;;;;;;4976108;28;20015;-71
2022/04/03 09:27:51;;;;;;;4.03;1.10;;;;;;;;;;4973654;28;20026;-71
2022/04/03 09:30:17;;;;;;;2.85;1.30;;;;;;;;;;4975310;28;20489;-71
2022/04/03 09:32:54;;;;;;;2.60;1.10;;;;;;;;;;4974858;28;20084;-69
2022/04/03 09:35:20;;;;;;;3.45;1.48;;;;;;;;;;4974861;28;20019;-72
2022/04/03 09:38:04;;;;;;;3.85;1.58;;;;;;;;;;4957298;28;20070;-71
2022/04/03 09:40:33;;;;;;;5.13;1.40;;;;;;;;;;4973757;28;20023;-72
2022/04/03 09:43:25;;;;;;;3.00;1.67;;;;;;;;;;4974253;28;20062;-72
2022/04/03 09:45:58;;;;;;;3.40;1.30;;;;;;;;;;4970285;28;20029;-71
2022/04/03 09:48:31;;;;;;;2.80;1.27;;;;;;;;;;4974660;28;20497;-73
2022/04/03 09:50:57;;;;;;;2.40;0.98;;;;;;;;;;4974588;28;20048;-71
2022/04/03 09:53:23;;;;;;;4.50;1.35;;;;;;;;;;4974483;28;20101;-72
2022/04/03 09:55:48;;;;;;;2.60;1.20;;;;;;;;;;4974539;28;20462;-71
2022/04/03 09:58:15;;;;;;;4.93;1.58;;;;;;;;;;4973168;28;20018;-72
2022/04/03 10:00:41;;;;;;;3.35;1.17;;;;;;;;;;4973008;28;20490;-72
2022/04/03 10:03:09;;;;;;;3.28;1.50;;;;;;;;;;4974655;28;20015;-71
2022/04/03 10:05:34;;;;;;;5.07;1.40;;;;;;;;;;4974663;28;20023;-73
2022/04/03 10:08:00;;;;;;;3.70;1.38;;;;;;;;;;4974390;28;20030;-70
2022/04/03 10:10:26;;;;;;;4.38;1.40;;;;;;;;;;4974499;28;20162;-70
2022/04/03 10:12:52;;;;;;;3.42;1.05;;;;;;;;;;4972676;28;20037;-72
2022/04/03 10:15:18;;;;;;;2.95;1.23;;;;;;;;;;4974211;28;20031;-71
2022/04/03 10:17:43;;;;;;;7.60;2.13;;;;;;;;;;4974548;28;20022;-71
2022/04/03 10:20:09;;;;;;;4.15;1.65;;;;;;;;;;4972821;28;20033;-71
2022/04/03 10:22:35;;;;;;;4.65;1.38;;;;;;;;;;4973999;28;20490;-71
2022/04/03 10:25:04;;;;;;;2.65;1.20;;;;;;;;;;4972587;28;20513;-70
2022/04/03 10:27:39;;;;;;;2.85;1.10;;;;;;;;;;4972433;28;20034;-73
2022/04/03 10:30:04;;;;;;;2.80;0.95;;;;;;;;;;4974040;28;20474;-70
2022/04/03 10:32:33;;;;;;;3.22;1.20;;;;;;;;;;4972560;28;20027;-70
2022/04/03 10:35:01;;;;;;;4.30;1.40;;;;;;;;;;4972430;28;20027;-72
2022/04/03 10:37:27;;;;;;;2.47;1.20;;;;;;;;;;4972665;28;20018;-72
2022/04/03 10:39:54;;;;;;;2.65;1.08;;;;;;;;;;4972468;28;20197;-72
2022/04/03 10:42:26;;;;;;;2.58;1.15;;;;;;;;;;4972329;28;20019;-71
2022/04/03 10:45:10;;;;;;;3.65;1.08;;;;;;;;;;4973530;28;20038;-72
2022/04/03 10:47:36;;;;;;;2.45;1.20;;;;;;;;;;4972215;28;20026;-72
2022/04/03 10:50:02;;;;;;;2.78;1.17;;;;;;;;;;4973708;28;20470;-72
2022/04/03 10:52:37;;;;;;;2.17;1.08;;;;;;;;;;4972116;28;20102;-71
2022/04/03 10:55:15;;;;;;;4.80;1.50;;;;;;;;;;4973485;28;20019;-71
2022/04/03 10:57:42;;;;;;;2.03;1.20;;;;;;;;;;4973383;28;20462;-71
2022/04/03 11:00:28;;;;;;;2.22;1.05;;;;;;;;;;4971997;28;20022;-71
2022/04/03 11:02:59;;;;;;;4.18;1.15;;;;;;;;;;4972748;28;20041;-72
2022/04/03 11:05:27;;;;;;;4.13;1.23;;;;;;;;;;4973539;28;20483;-72
2022/04/03 11:08:13;;;;;;;3.75;1.08;;;;;;;;;;4973126;28;20019;-72
2022/04/03 11:10:52;;;;;;;2.75;1.30;;;;;;;;;;4971461;28;20077;-72
2022/04/03 11:13:29;;;;;;;3.55;1.23;;;;;;;;;;4972938;28;20025;-72
2022/04/03 11:16:02;;;;;;;5.82;1.20;;;;;;;;;;4971814;28;20023;-71
2022/04/03 11:18:37;;;;;;;2.78;1.27;;;;;;;;;;4972966;28;20494;-72
2022/04/03 11:21:14;;;;;;;3.42;1.42;;;;;;;;;;4971829;28;20046;-71
2022/04/03 11:23:44;;;;;;;2.40;1.05;;;;;;;;;;4972726;28;20027;-72
2022/04/03 11:26:10;;;;;;;1.70;1.00;;;;;;;;;;4972834;28;20086;-72
2022/04/03 11:28:36;;;;;;;3.17;1.50;;;;;;;;;;4971374;28;20030;-70
2022/04/03 11:31:03;;;;;;;3.08;1.27;;;;;;;;;;4971406;28;20454;-71
2022/04/03 11:33:29;;;;;;;3.05;1.30;;;;;;;;;;4971398;28;20037;-72
2022/04/03 11:35:54;;;;;;;3.70;1.23;;;;;;;;;;4971566;28;20031;-72
2022/04/03 11:38:20;;;;;;;5.72;1.30;;;;;;;;;;4972578;28;20397;-70
2022/04/03 11:40:47;;;;;;;3.60;1.30;;;;;;;;;;4972622;28;20027;-70
2022/04/03 11:43:16;;;;;;;6.13;1.38;;;;;;;;;;4970872;28;20018;-72
2022/04/03 11:46:08;;;;;;;2.53;1.13;;;;;;;;;;4971507;28;20508;-70
2022/04/03 11:48:37;;;;;;;1.85;0.98;;;;;;;;;;4968618;28;20127;-71
2022/04/03 11:51:03;;;;;;;5.90;1.33;;;;;;;;;;4972472;28;20390;-70
2022/04/03 11:53:28;;;;;;;4.07;1.50;;;;;;;;;;4971050;28;20038;-71
2022/04/03 11:55:55;;;;;;;3.15;1.15;;;;;;;;;;4972693;28;20020;-71
2022/04/03 11:58:29;;;;;;;4.93;1.63;;;;;;;;;;4972703;28;20019;-71
2022/04/03 12:00:57;;;;;;;2.53;1.20;;;;;;;;;;4972739;28;20493;-71
2022/04/03 12:03:27;;;;;;;3.35;1.30;;;;;;;;;;4972826;28;20102;-70
2022/04/03 12:06:08;;;;;;;3.58;1.30;;;;;;;;;;4971592;28;20173;-71
2022/04/03 12:08:38;;;;;;;2.47;1.10;;;;;;;;;;4976018;28;20022;-71
2022/04/03 12:11:13;;;;;;;7.72;1.23;;;;;;;;;;4976428;28;20034;-71
2022/04/03 12:13:39;;;;;;;5.10;1.30;;;;;;;;;;4974407;28;20046;-74
2022/04/03 12:16:06;;;;;;;2.42;1.20;;;;;;;;;;4975116;28;20062;-72
2022/04/03 12:18:46;;;;;;;5.60;2.00;;;;;;;;;;4976344;28;20050;-72
2022/04/03 12:21:11;;;;;;;6.22;1.30;;;;;;;;;;4976376;28;20026;-70
2022/04/03 12:23:36;;;;;;;4.35;1.60;;;;;;;;;;4976050;28;20023;-70
2022/04/03 12:26:01;;;;;;;2.75;1.27;;;;;;;;;;4976111;28;20023;-70
2022/04/03 12:28:27;;;;;;;3.67;1.33;;;;;;;;;;4975961;28;20030;-71
2022/04/03 12:31:02;;;;;;;3.13;1.30;;;;;;;;;;4976144;28;20470;-71
2022/04/03 12:33:34;;;;;;;1.80;1.00;;;;;;;;;;4974527;28;20155;-71
2022/04/03 12:36:00;;;;;;;2.85;1.40;;;;;;;;;;4976051;28;20099;-71
2022/04/03 12:38:28;;;;;;;3.97;1.30;;;;;;;;;;4975824;28;20033;-70
2022/04/03 12:40:57;;;;;;;8.47;1.30;;;;;;;;;;4974354;28;20030;-71
2022/04/03 12:43:22;;;;;;;2.65;1.27;;;;;;;;;;4975874;28;20027;-72
2022/04/03 12:45:56;;;;;;;2.53;1.10;;;;;;;;;;4975896;28;20033;-71
2022/04/03 12:48:22;;;;;;;7.63;2.03;;;;;;;;;;4974347;28;20026;-71
2022/04/03 12:50:48;;;;;;;3.50;1.48;;;;;;;;;;4975844;28;20077;-72
2022/04/03 12:53:14;;;;;;;2.13;1.27;;;;;;;;;;4975386;28;20019;-71
2022/04/03 12:55:41;;;;;;;3.47;1.63;;;;;;;;;;4975670;28;20026;-72
2022/04/03 12:58:25;;;;;;;6.20;1.40;;;;;;;;;;4974477;28;20019;-72
2022/04/03 13:00:54;;;;;;;3.42;1.38;;;;;;;;;;4974448;28;20069;-72
2022/04/03 13:03:19;;;;;;;;;;;;;;;;;;4975870;28;20076;-72
2022/04/03 13:05:47;;;;;;;7.05;1.23;;;;;;;;;;4974109;28;20315;-69
2022/04/03 13:08:12;;;;;;;4.53;1.42;;;;;;;;;;4975428;28;20376;-70
2022/04/03 13:10:57;;;;;;;4.20;1.45;;;;;;;;;;4973882;28;20071;-70
2022/04/03 13:13:24;;;;;;;5.45;1.48;;;;;;;;;;4975044;28;20446;-70
2022/04/03 13:15:49;;;;;;;4.72;1.30;;;;;;;;;;4974066;28;20022;-71
2022/04/03 13:18:14;;;;;;;4.40;1.65;;;;;;;;;;4972633;28;20490;-70
2022/04/03 13:20:39;;;;;;;4.15;1.50;;;;;;;;;;4974796;28;20022;-72
2022/04/03 13:23:05;;;;;;;3.03;1.58;;;;;;;;;;4974928;28;20038;-71
2022/04/03 13:25:31;;;;;;;3.40;1.60;;;;;;;;;;4975232;28;20056;-71
2022/04/03 13:27:57;;;;;;;4.75;1.40;;;;;;;;;;4973331;28;20416;-71
2022/04/03 13:30:22;;;;;;;5.47;1.70;;;;;;;;;;4973762;28;20023;-71
2022/04/03 13:32:47;;;;;;;8.45;3.25;;;;;;;;;;4973291;28;20386;-70
2022/04/03 13:35:13;;;;;;;3.22;1.40;;;;;;;;;;4974820;28;20031;-70
2022/04/03 13:37:38;;;;;;;3.35;1.60;;;;;;;;;;4973429;28;20093;-70
2022/04/03 13:40:04;;;;;;;6.43;2.60;;;;;;;;;;4973820;28;20120;-70
2022/04/03 13:42:29;;;;;;;8.07;3.60;;;;;;;;;;4974810;28;20018;-70
2022/04/03 13:44:54;;;;;;;4.13;1.45;;;;;;;;;;4973157;28;20027;-70
2022/04/03 13:47:19;;;;;;;3.58;1.60;;;;;;;;;;4974547;28;20545;-72
2022/04/03 13:49:45;;;;;;;2.47;1.42;;;;;;;;;;4973838;28;20058;-73
2022/04/03 13:52:10;;;;;;;6.78;2.67;;;;;;;;;;4973388;28;20050;-72
2022/04/03 13:54:35;;;;;;;8.75;2.17;;;;;;;;;;4974563;28;20023;-71
2022/04/03 13:57:01;;;;;;;6.78;3.10;;;;;;;;;;4974469;28;20015;-71
2022/04/03 13:59:26;;;;;;;10.18;4.38;;;;;;;;;;4974468;28;20015;-70
2022/04/03 14:01:52;;;;;;;7.07;2.28;;;;;;;;;;4972781;28;20460;-74
2022/04/03 14:04:17;;;;;;;3.67;1.70;;;;;;;;;;4972787;28;20027;-72
2022/04/03 14:06:43;;;;;;;4.72;1.75;;;;;;;;;;4972966;28;20470;-72
2022/04/03 14:09:09;;;;;;;4.57;1.65;;;;;;;;;;4974344;28;20027;-73
2022/04/03 14:11:35;;;;;;;3.45;1.60;;;;;;;;;;4974764;28;20030;-73
2022/04/03 14:14:01;;;;;;;6.28;2.13;;;;;;;;;;4972710;28;20037;-72
2022/04/03 14:16:26;;;;;;;6.03;1.75;;;;;;;;;;4974599;28;20033;-71
2022/04/03 14:18:52;;;;;;;5.85;1.55;;;;;;;;;;4973124;28;20113;-73
2022/04/03 14:21:23;;;;;;;3.17;1.65;;;;;;;;;;4974069;28;20077;-74
2022/04/03 14:23:48;;;;;;;5.10;1.20;;;;;;;;;;4972682;28;20034;-73
2022/04/03 14:26:13;;;;;;;6.53;2.30;;;;;;;;;;4974172;28;20105;-72
2022/04/03 14:28:39;;;;;;;6.68;1.50;;;;;;;;;;4985137;23;20046;-78
2022/04/03 14:31:04;;;;;;;4.32;1.67;;;;;;;;;;4972357;28;20404;-80
2022/04/03 14:33:30;;;;;;;5.18;1.40;;;;;;;;;;4972609;28;20508;-78
2022/04/03 14:35:58;;;;;;;6.93;1.23;;;;;;;;;;4973781;28;20019;-79
2022/04/03 14:38:27;;;;;;;3.97;1.50;;;;;;;;;;4972570;28;20437;-80
2022/04/03 14:40:52;;;;;;;3.97;1.20;;;;;;;;;;4973667;28;20030;-77